Terminal Aerodrome Forecast
Issued by NWS

Home | Current Version | Previous Version | Text Only | Print | Product List | Glossary On
Versions: 1 2 3 4 5 6 7 8 9 10 11 12 13 14 15 16 17 18 19 20 21
511
FTUS45 KFGZ 211136
TAFPRC
TAF
KPRC 211136Z 2112/2212 19005KT P6SM SCT120
     FM211800 25007KT P6SM BKN060 BKN080
      TEMPO 2120/2124 VRB10G20KT 4SM TSRA BKN050CB
     FM220200 VRB05KT P6SM SCT080 BKN100=

USA.gov is the U.S. government's official web portal to all federal, state and local government web resources and services.